sensor_id;sensor_type;location;lat;lon;timestamp;pressure;altitude;pressure_sealevel;temperature;humidity
59168;BME280;44948;55.046;73.266;2022-10-31T00:00:19;100331.81;;;-6.29;82.51
59168;BME280;44948;55.046;73.266;2022-10-31T00:02:02;100331.84;;;-6.34;82.41
59168;BME280;44948;55.046;73.266;2022-10-31T00:03:44;100312.28;;;-6.46;81.83
59168;BME280;44948;55.046;73.266;2022-10-31T00:05:26;100326.75;;;-6.37;82.31
59168;BME280;44948;55.046;73.266;2022-10-31T00:07:09;100319.91;;;-6.39;82.07
59168;BME280;44948;55.046;73.266;2022-10-31T00:08:56;100311.41;;;-6.38;81.64
59168;BME280;44948;55.046;73.266;2022-10-31T00:10:43;100275.72;;;-6.72;81.91
59168;BME280;44948;55.046;73.266;2022-10-31T00:12:27;100315.69;;;-6.48;81.56
59168;BME280;44948;55.046;73.266;2022-10-31T00:14:09;100322.50;;;-6.52;81.91
59168;BME280;44948;55.046;73.266;2022-10-31T00:15:51;100318.22;;;-6.59;81.74
59168;BME280;44948;55.046;73.266;2022-10-31T00:17:35;100323.31;;;-6.56;81.74
59168;BME280;44948;55.046;73.266;2022-10-31T00:19:18;100276.56;;;-6.88;81.44
59168;BME280;44948;55.046;73.266;2022-10-31T00:21:02;100325.91;;;-6.63;81.44
59168;BME280;44948;55.046;73.266;2022-10-31T00:22:44;100328.44;;;-6.66;81.15
59168;BME280;44948;55.046;73.266;2022-10-31T00:24:26;100325.06;;;-6.70;81.36
59168;BME280;44948;55.046;73.266;2022-10-31T00:26:09;100325.88;;;-6.74;81.05
59168;BME280;44948;55.046;73.266;2022-10-31T00:27:52;100325.03;;;-6.82;81.42
59168;BME280;44948;55.046;73.266;2022-10-31T00:29:35;100320.81;;;-6.94;81.02
59168;BME280;44948;55.046;73.266;2022-10-31T00:31:17;100305.50;;;-7.09;81.29
59168;BME280;44948;55.046;73.266;2022-10-31T00:33:02;100293.59;;;-7.21;81.60
59168;BME280;44948;55.046;73.266;2022-10-31T00:34:46;100313.13;;;-7.12;81.57
59168;BME280;44948;55.046;73.266;2022-10-31T00:36:29;100340.34;;;-6.97;81.27
59168;BME280;44948;55.046;73.266;2022-10-31T00:38:11;100319.94;;;-7.10;80.95
59168;BME280;44948;55.046;73.266;2022-10-31T00:39:53;100335.25;;;-7.03;81.21
59168;BME280;44948;55.046;73.266;2022-10-31T00:41:36;100325.88;;;-7.09;81.34
59168;BME280;44948;55.046;73.266;2022-10-31T00:43:25;100336.13;;;-7.04;81.08
59168;BME280;44948;55.046;73.266;2022-10-31T00:45:09;100329.28;;;-7.12;80.89
59168;BME280;44948;55.046;73.266;2022-10-31T00:46:52;100297.81;;;-7.32;81.46
59168;BME280;44948;55.046;73.266;2022-10-31T00:48:37;100339.47;;;-7.07;81.31
59168;BME280;44948;55.046;73.266;2022-10-31T00:50:19;100334.38;;;-7.13;81.32
59168;BME280;44948;55.046;73.266;2022-10-31T00:52:02;100340.34;;;-7.13;81.35
59168;BME280;44948;55.046;73.266;2022-10-31T00:53:44;100346.28;;;-7.14;81.30
59168;BME280;44948;55.046;73.266;2022-10-31T00:55:26;100302.91;;;-7.38;80.87
59168;BME280;44948;55.046;73.266;2022-10-31T00:57:09;100322.44;;;-7.26;80.76
59168;BME280;44948;55.046;73.266;2022-10-31T00:58:51;100328.41;;;-7.26;80.92
59168;BME280;44948;55.046;73.266;2022-10-31T01:00:35;100338.63;;;-7.20;80.78
59168;BME280;44948;55.046;73.266;2022-10-31T01:02:17;100342.03;;;-7.21;81.00
59168;BME280;44948;55.046;73.266;2022-10-31T01:03:59;100346.28;;;-7.21;80.61
59168;BME280;44948;55.046;73.266;2022-10-31T01:05:42;100350.50;;;-7.25;80.69
59168;BME280;44948;55.046;73.266;2022-10-31T01:07:24;100358.97;;;-7.26;80.39
59168;BME280;44948;55.046;73.266;2022-10-31T01:09:07;100345.38;;;-7.26;80.53
59168;BME280;44948;55.046;73.266;2022-10-31T01:11:15;100311.31;;;-7.57;80.51
59168;BME280;44948;55.046;73.266;2022-10-31T01:12:57;100350.47;;;-7.35;80.43
59168;BME280;44948;55.046;73.266;2022-10-31T01:14:44;100347.06;;;-7.36;80.80
59168;BME280;44948;55.046;73.266;2022-10-31T01:16:27;100355.53;;;-7.40;80.85
59168;BME280;44948;55.046;73.266;2022-10-31T01:18:12;100354.69;;;-7.41;81.03
59168;BME280;44948;55.046;73.266;2022-10-31T01:19:55;100353.88;;;-7.38;80.74
59168;BME280;44948;55.046;73.266;2022-10-31T01:21:37;100359.78;;;-7.39;80.43
59168;BME280;44948;55.046;73.266;2022-10-31T01:23:21;100355.53;;;-7.43;80.60
59168;BME280;44948;55.046;73.266;2022-10-31T01:25:05;100354.69;;;-7.44;80.66
59168;BME280;44948;55.046;73.266;2022-10-31T01:26:47;100364.03;;;-7.41;80.85
59168;BME280;44948;55.046;73.266;2022-10-31T01:28:30;100359.78;;;-7.41;80.77
59168;BME280;44948;55.046;73.266;2022-10-31T01:30:12;100368.31;;;-7.35;80.33
59168;BME280;44948;55.046;73.266;2022-10-31T01:31:54;100323.25;;;-7.53;81.08
59168;BME280;44948;55.046;73.266;2022-10-31T01:33:37;100336.84;;;-7.44;80.95
59168;BME280;44948;55.046;73.266;2022-10-31T01:35:19;100369.19;;;-7.26;80.93
59168;BME280;44948;55.046;73.266;2022-10-31T01:37:02;100364.97;;;-7.21;81.03
59168;BME280;44948;55.046;73.266;2022-10-31T01:38:46;100313.06;;;-7.50;81.25
59168;BME280;44948;55.046;73.266;2022-10-31T01:40:29;100362.38;;;-7.36;81.60
59168;BME280;44948;55.046;73.266;2022-10-31T01:42:19;100361.53;;;-7.29;81.80
59168;BME280;44948;55.046;73.266;2022-10-31T01:45:55;100337.78;;;-7.20;81.98
59168;BME280;44948;55.046;73.266;2022-10-31T01:47:43;100352.22;;;-7.06;81.99
59168;BME280;44948;55.046;73.266;2022-10-31T01:51:18;100309.72;;;-7.34;81.58
59168;BME280;44948;55.046;73.266;2022-10-31T01:53:06;100317.34;;;-7.23;81.96
59168;BME280;44948;55.046;73.266;2022-10-31T01:55:00;100353.97;;;-6.98;81.38
59168;BME280;44948;55.046;73.266;2022-10-31T01:56:49;100323.34;;;-7.17;81.80
59168;BME280;44948;55.046;73.266;2022-10-31T01:58:32;100354.81;;;-6.90;81.56
59168;BME280;44948;55.046;73.266;2022-10-31T02:00:15;100359.91;;;-6.83;82.31
59168;BME280;44948;55.046;73.266;2022-10-31T02:01:57;100366.69;;;-6.77;82.10
59168;BME280;44948;55.046;73.266;2022-10-31T02:03:42;100338.66;;;-6.80;82.29
59168;BME280;44948;55.046;73.266;2022-10-31T02:05:27;100369.25;;;-6.62;82.49
59168;BME280;44948;55.046;73.266;2022-10-31T02:07:14;100319.09;;;-6.78;82.24
59168;BME280;44948;55.046;73.266;2022-10-31T02:08:59;100357.34;;;-6.57;82.53
59168;BME280;44948;55.046;73.266;2022-10-31T02:10:43;100362.44;;;-6.57;81.97
59168;BME280;44948;55.046;73.266;2022-10-31T02:12:26;100309.75;;;-6.79;82.08
59168;BME280;44948;55.046;73.266;2022-10-31T02:14:14;100350.56;;;-6.50;82.03
59168;BME280;44948;55.046;73.266;2022-10-31T02:15:58;100349.69;;;-6.45;82.98
59168;BME280;44948;55.046;73.266;2022-10-31T02:17:41;100353.94;;;-6.39;83.17
59168;BME280;44948;55.046;73.266;2022-10-31T02:19:52;100309.72;;;-6.58;82.80
59168;BME280;44948;55.046;73.266;2022-10-31T02:23:39;100348.81;;;-6.22;83.23
59168;BME280;44948;55.046;73.266;2022-10-31T02:27:49;100365.81;;;-6.06;83.60
59168;BME280;44948;55.046;73.266;2022-10-31T02:30:02;100370.94;;;-6.00;82.80
59168;BME280;44948;55.046;73.266;2022-10-31T02:31:50;100376.03;;;-6.00;83.15
59168;BME280;44948;55.046;73.266;2022-10-31T02:33:41;100365.78;;;-5.94;83.31
59168;BME280;44948;55.046;73.266;2022-10-31T02:35:38;100377.69;;;-5.83;83.58
59168;BME280;44948;55.046;73.266;2022-10-31T02:37:46;100375.97;;;-5.78;83.77
59168;BME280;44948;55.046;73.266;2022-10-31T02:39:56;100379.34;;;-5.72;83.52
59168;BME280;44948;55.046;73.266;2022-10-31T02:44:10;100387.03;;;-5.69;84.00
59168;BME280;44948;55.046;73.266;2022-10-31T02:46:03;100171.22;;;-6.92;83.70
59168;BME280;44948;55.046;73.266;2022-10-31T02:47:51;100399.75;;;-5.49;84.21
59168;BME280;44948;55.046;73.266;2022-10-31T02:49:48;100393.75;;;-5.46;83.72
59168;BME280;44948;55.046;73.266;2022-10-31T02:51:32;100388.63;;;-5.40;83.97
59168;BME280;44948;55.046;73.266;2022-10-31T02:53:15;100400.56;;;-5.41;84.27
59168;BME280;44948;55.046;73.266;2022-10-31T02:54:58;100352.94;;;-5.62;84.21
59168;BME280;44948;55.046;73.266;2022-10-31T02:56:40;100399.66;;;-5.37;84.62
59168;BME280;44948;55.046;73.266;2022-10-31T02:58:26;100365.69;;;-5.57;84.54
59168;BME280;44948;55.046;73.266;2022-10-31T03:00:10;100386.06;;;-5.39;84.62
59168;BME280;44948;55.046;73.266;2022-10-31T03:07:55;100404.63;;;-5.03;84.29
59168;BME280;44948;55.046;73.266;2022-10-31T03:09:42;100399.50;;;-4.97;85.00
59168;BME280;44948;55.046;73.266;2022-10-31T03:11:43;100397.81;;;-4.98;84.62
59168;BME280;44948;55.046;73.266;2022-10-31T03:13:34;100387.56;;;-4.95;84.72
59168;BME280;44948;55.046;73.266;2022-10-31T03:15:29;100390.97;;;-4.96;84.85
59168;BME280;44948;55.046;73.266;2022-10-31T03:17:43;100392.66;;;-4.95;85.16
59168;BME280;44948;55.046;73.266;2022-10-31T03:19:41;100390.91;;;-4.84;85.15
59168;BME280;44948;55.046;73.266;2022-10-31T03:22:00;100390.91;;;-4.84;84.71
59168;BME280;44948;55.046;73.266;2022-10-31T03:23:44;100397.75;;;-4.86;85.03
59168;BME280;44948;55.046;73.266;2022-10-31T03:25:35;100400.28;;;-4.84;85.56
59168;BME280;44948;55.046;73.266;2022-10-31T03:27:23;100393.44;;;-4.81;85.11
59168;BME280;44948;55.046;73.266;2022-10-31T03:29:08;100401.03;;;-4.70;85.28
59168;BME280;44948;55.046;73.266;2022-10-31T03:30:56;100382.34;;;-4.80;85.58
59168;BME280;44948;55.046;73.266;2022-10-31T03:32:46;100396.00;;;-4.81;85.88
59168;BME280;44948;55.046;73.266;2022-10-31T03:34:31;100394.28;;;-4.79;86.03
59168;BME280;44948;55.046;73.266;2022-10-31T03:36:15;100402.78;;;-4.77;85.98
59168;BME280;44948;55.046;73.266;2022-10-31T03:38:00;100399.28;;;-4.64;85.65
59168;BME280;44948;55.046;73.266;2022-10-31T03:39:45;100403.50;;;-4.58;85.92
59168;BME280;44948;55.046;73.266;2022-10-31T03:41:32;100388.97;;;-4.54;85.44
59168;BME280;44948;55.046;73.266;2022-10-31T03:43:29;100389.84;;;-4.52;85.64
59168;BME280;44948;55.046;73.266;2022-10-31T03:45:25;100397.44;;;-4.43;85.27
59168;BME280;44948;55.046;73.266;2022-10-31T03:47:09;100396.50;;;-4.33;85.53
59168;BME280;44948;55.046;73.266;2022-10-31T03:48:52;100394.81;;;-4.32;85.20
59168;BME280;44948;55.046;73.266;2022-10-31T03:50:38;100400.06;;;-4.54;85.24
59168;BME280;44948;55.046;73.266;2022-10-31T03:52:26;100408.59;;;-4.49;85.42
59168;BME280;44948;55.046;73.266;2022-10-31T03:54:35;100367.75;;;-4.70;85.60
59168;BME280;44948;55.046;73.266;2022-10-31T03:56:41;100405.91;;;-4.38;85.41
59168;BME280;44948;55.046;73.266;2022-10-31T03:58:34;100407.53;;;-4.25;85.41
59168;BME280;44948;55.046;73.266;2022-10-31T04:00:21;100402.38;;;-4.22;85.20
59168;BME280;44948;55.046;73.266;2022-10-31T04:02:07;100403.94;;;-4.06;85.53
59168;BME280;44948;55.046;73.266;2022-10-31T04:03:53;100417.53;;;-3.97;85.06
59168;BME280;44948;55.046;73.266;2022-10-31T04:05:37;100407.34;;;-4.04;85.13
59168;BME280;44948;55.046;73.266;2022-10-31T04:07:21;100405.63;;;-4.01;85.10
59168;BME280;44948;55.046;73.266;2022-10-31T04:09:09;100415.75;;;-3.91;84.82
59168;BME280;44948;55.046;73.266;2022-10-31T04:10:52;100414.09;;;-3.95;84.87
59168;BME280;44948;55.046;73.266;2022-10-31T04:12:37;100426.84;;;-3.89;84.78
59168;BME280;44948;55.046;73.266;2022-10-31T04:14:35;100409.84;;;-3.97;85.10
59168;BME280;44948;55.046;73.266;2022-10-31T04:16:19;100426.00;;;-3.89;84.41
59168;BME280;44948;55.046;73.266;2022-10-31T04:18:04;100409.78;;;-3.90;84.57
59168;BME280;44948;55.046;73.266;2022-10-31T04:19:47;100410.63;;;-3.89;85.05
59168;BME280;44948;55.046;73.266;2022-10-31T04:21:30;100395.38;;;-4.01;84.84
59168;BME280;44948;55.046;73.266;2022-10-31T04:23:20;100403.78;;;-3.90;85.21
59168;BME280;44948;55.046;73.266;2022-10-31T04:25:04;100408.97;;;-3.93;85.09
59168;BME280;44948;55.046;73.266;2022-10-31T04:26:46;100406.41;;;-3.95;84.81
59168;BME280;44948;55.046;73.266;2022-10-31T04:28:28;100410.53;;;-3.80;84.77
59168;BME280;44948;55.046;73.266;2022-10-31T04:30:12;100416.50;;;-3.80;84.96
59168;BME280;44948;55.046;73.266;2022-10-31T04:31:55;100425.88;;;-3.77;84.53
59168;BME280;44948;55.046;73.266;2022-10-31T04:33:38;100392.72;;;-3.92;84.47
59168;BME280;44948;55.046;73.266;2022-10-31T04:35:24;100419.84;;;-3.72;85.13
59168;BME280;44948;55.046;73.266;2022-10-31T04:37:07;100419.84;;;-3.68;85.20
59168;BME280;44948;55.046;73.266;2022-10-31T04:38:49;100421.53;;;-3.67;85.01
59168;BME280;44948;55.046;73.266;2022-10-31T04:40:53;100411.25;;;-3.64;84.96
59168;BME280;44948;55.046;73.266;2022-10-31T04:42:53;100413.69;;;-3.57;85.22
59168;BME280;44948;55.046;73.266;2022-10-31T04:44:37;100417.09;;;-3.52;85.09
59168;BME280;44948;55.046;73.266;2022-10-31T04:46:19;100418.75;;;-3.48;84.93
59168;BME280;44948;55.046;73.266;2022-10-31T04:48:03;100414.38;;;-3.41;84.52
59168;BME280;44948;55.046;73.266;2022-10-31T04:49:50;100423.88;;;-3.49;84.31
59168;BME280;44948;55.046;73.266;2022-10-31T04:51:33;100404.38;;;-3.62;84.57
59168;BME280;44948;55.046;73.266;2022-10-31T04:53:15;100417.03;;;-3.49;84.99
59168;BME280;44948;55.046;73.266;2022-10-31T04:55:17;100417.00;;;-3.46;84.83
59168;BME280;44948;55.046;73.266;2022-10-31T04:57:19;100420.38;;;-3.42;85.51
59168;BME280;44948;55.046;73.266;2022-10-31T04:59:02;100426.34;;;-3.40;84.24
59168;BME280;44948;55.046;73.266;2022-10-31T05:00:55;100385.47;;;-3.55;84.81
59168;BME280;44948;55.046;73.266;2022-10-31T05:02:48;100424.50;;;-3.29;84.72
59168;BME280;44948;55.046;73.266;2022-10-31T05:04:31;100414.97;;;-3.19;84.87
59168;BME280;44948;55.046;73.266;2022-10-31T05:06:13;100422.56;;;-3.10;84.68
59168;BME280;44948;55.046;73.266;2022-10-31T05:07:58;100312.16;;;-3.70;84.42
59168;BME280;44948;55.046;73.266;2022-10-31T05:09:41;100379.19;;;-3.28;84.45
59168;BME280;44948;55.046;73.266;2022-10-31T05:11:23;100414.78;;;-3.04;84.17
59168;BME280;44948;55.046;73.266;2022-10-31T05:13:07;100413.91;;;-3.03;84.05
59168;BME280;44948;55.046;73.266;2022-10-31T05:14:50;100412.19;;;-3.01;84.43
59168;BME280;44948;55.046;73.266;2022-10-31T05:17:04;100412.34;;;-3.13;84.34
59168;BME280;44948;55.046;73.266;2022-10-31T05:19:15;100428.47;;;-3.05;84.25
59168;BME280;44948;55.046;73.266;2022-10-31T05:21:17;100431.84;;;-3.00;84.37
59168;BME280;44948;55.046;73.266;2022-10-31T05:23:12;100428.44;;;-3.02;84.15
59168;BME280;44948;55.046;73.266;2022-10-31T05:24:56;100394.44;;;-3.16;83.78
59168;BME280;44948;55.046;73.266;2022-10-31T05:26:39;100432.56;;;-2.90;84.14
59168;BME280;44948;55.046;73.266;2022-10-31T05:28:21;100434.22;;;-2.85;83.68
59168;BME280;44948;55.046;73.266;2022-10-31T05:30:05;100407.75;;;-2.90;83.86
59168;BME280;44948;55.046;73.266;2022-10-31T05:31:49;100430.59;;;-2.71;83.69
59168;BME280;44948;55.046;73.266;2022-10-31T05:33:51;100389.00;;;-2.95;83.34
59168;BME280;44948;55.046;73.266;2022-10-31T05:36:09;100433.22;;;-2.74;83.33
59168;BME280;44948;55.046;73.266;2022-10-31T05:38:11;100439.19;;;-2.74;83.45
59168;BME280;44948;55.046;73.266;2022-10-31T05:39:54;100429.91;;;-2.83;83.39
59168;BME280;44948;55.046;73.266;2022-10-31T05:41:37;100441.72;;;-2.72;83.32
59168;BME280;44948;55.046;73.266;2022-10-31T05:43:23;100446.81;;;-2.69;83.30
59168;BME280;44948;55.046;73.266;2022-10-31T05:45:11;100450.31;;;-2.75;83.61
59168;BME280;44948;55.046;73.266;2022-10-31T05:47:01;100456.50;;;-2.88;83.05
59168;BME280;44948;55.046;73.266;2022-10-31T05:49:02;100450.44;;;-2.83;83.56
59168;BME280;44948;55.046;73.266;2022-10-31T05:51:03;100455.44;;;-2.73;83.76
59168;BME280;44948;55.046;73.266;2022-10-31T05:52:45;100457.06;;;-2.66;83.21
59168;BME280;44948;55.046;73.266;2022-10-31T05:54:39;100440.78;;;-2.65;83.58
59168;BME280;44948;55.046;73.266;2022-10-31T05:56:21;100445.88;;;-2.62;83.46
59168;BME280;44948;55.046;73.266;2022-10-31T05:58:04;100453.59;;;-2.62;83.08
59168;BME280;44948;55.046;73.266;2022-10-31T05:59:49;100464.56;;;-2.51;82.94
59168;BME280;44948;55.046;73.266;2022-10-31T06:01:35;100477.41;;;-2.51;82.91
59168;BME280;44948;55.046;73.266;2022-10-31T06:03:20;100469.72;;;-2.54;82.69
59168;BME280;44948;55.046;73.266;2022-10-31T06:05:07;100463.91;;;-2.68;82.56
59168;BME280;44948;55.046;73.266;2022-10-31T06:06:50;100441.19;;;-2.96;82.67
59168;BME280;44948;55.046;73.266;2022-10-31T06:08:35;100476.03;;;-2.76;82.88
59168;BME280;44948;55.046;73.266;2022-10-31T06:10:20;100483.81;;;-2.86;83.34
59168;BME280;44948;55.046;73.266;2022-10-31T06:12:07;100466.78;;;-2.91;83.03
59168;BME280;44948;55.046;73.266;2022-10-31T06:14:07;100483.06;;;-2.92;83.66
59168;BME280;44948;55.046;73.266;2022-10-31T06:16:12;100486.53;;;-2.95;83.62
59168;BME280;44948;55.046;73.266;2022-10-31T06:18:02;100450.91;;;-3.22;83.34
59168;BME280;44948;55.046;73.266;2022-10-31T06:19:49;100491.66;;;-2.95;83.90
59168;BME280;44948;55.046;73.266;2022-10-31T06:21:35;100490.88;;;-3.01;83.77
59168;BME280;44948;55.046;73.266;2022-10-31T06:23:18;100496.88;;;-3.04;83.77
59168;BME280;44948;55.046;73.266;2022-10-31T06:25:08;100495.94;;;-2.95;84.16
59168;BME280;44948;55.046;73.266;2022-10-31T06:26:53;100490.78;;;-2.94;83.90
59168;BME280;44948;55.046;73.266;2022-10-31T06:28:36;100456.91;;;-3.22;83.54
59168;BME280;44948;55.046;73.266;2022-10-31T06:30:32;100495.16;;;-3.00;83.67
59168;BME280;44948;55.046;73.266;2022-10-31T06:32:15;100450.88;;;-3.16;83.63
59168;BME280;44948;55.046;73.266;2022-10-31T06:34:00;100500.97;;;-2.88;83.64
59168;BME280;44948;55.046;73.266;2022-10-31T06:35:48;100478.06;;;-3.03;83.02
59168;BME280;44948;55.046;73.266;2022-10-31T06:37:33;100502.69;;;-2.88;83.32
59168;BME280;44948;55.046;73.266;2022-10-31T06:39:23;100504.31;;;-2.81;83.60
59168;BME280;44948;55.046;73.266;2022-10-31T06:41:05;100505.22;;;-2.87;83.47
59168;BME280;44948;55.046;73.266;2022-10-31T06:43:01;100466.13;;;-3.07;83.28
59168;BME280;44948;55.046;73.266;2022-10-31T06:44:48;100501.72;;;-2.78;83.42
59168;BME280;44948;55.046;73.266;2022-10-31T06:46:50;100502.50;;;-2.73;83.52
59168;BME280;44948;55.046;73.266;2022-10-31T06:48:52;100503.28;;;-2.66;83.46
59168;BME280;44948;55.046;73.266;2022-10-31T06:50:39;100508.44;;;-2.69;82.90
59168;BME280;44948;55.046;73.266;2022-10-31T06:52:24;100512.06;;;-2.83;83.26
59168;BME280;44948;55.046;73.266;2022-10-31T06:54:07;100503.53;;;-2.85;83.30
59168;BME280;44948;55.046;73.266;2022-10-31T06:55:50;100501.66;;;-2.73;83.50
59168;BME280;44948;55.046;73.266;2022-10-31T06:57:32;100503.31;;;-2.69;83.10
59168;BME280;44948;55.046;73.266;2022-10-31T06:59:15;100505.75;;;-2.60;83.22
59168;BME280;44948;55.046;73.266;2022-10-31T07:01:22;100500.75;;;-2.68;82.71
59168;BME280;44948;55.046;73.266;2022-10-31T07:03:08;100502.47;;;-2.71;82.95
59168;BME280;44948;55.046;73.266;2022-10-31T07:04:53;100500.91;;;-2.82;82.71
59168;BME280;44948;55.046;73.266;2022-10-31T07:06:36;100510.31;;;-2.80;82.90
59168;BME280;44948;55.046;73.266;2022-10-31T07:08:18;100500.84;;;-2.77;83.49
59168;BME280;44948;55.046;73.266;2022-10-31T07:10:00;100504.94;;;-2.62;82.96
59168;BME280;44948;55.046;73.266;2022-10-31T07:12:06;100482.75;;;-2.69;83.36
59168;BME280;44948;55.046;73.266;2022-10-31T07:13:52;100475.88;;;-2.64;82.89
59168;BME280;44948;55.046;73.266;2022-10-31T07:15:36;100511.41;;;-2.37;82.14
59168;BME280;44948;55.046;73.266;2022-10-31T07:17:19;100513.13;;;-2.36;82.31
59168;BME280;44948;55.046;73.266;2022-10-31T07:19:09;100509.06;;;-2.52;81.71
59168;BME280;44948;55.046;73.266;2022-10-31T07:20:52;100510.06;;;-2.62;82.48
59168;BME280;44948;55.046;73.266;2022-10-31T07:22:36;100510.13;;;-2.68;82.47
59168;BME280;44948;55.046;73.266;2022-10-31T07:24:22;100494.16;;;-2.90;82.27
59168;BME280;44948;55.046;73.266;2022-10-31T07:26:13;100512.09;;;-2.87;82.92
59168;BME280;44948;55.046;73.266;2022-10-31T07:28:00;100510.34;;;-2.84;82.78
59168;BME280;44948;55.046;73.266;2022-10-31T07:29:42;100510.31;;;-2.80;82.67
59168;BME280;44948;55.046;73.266;2022-10-31T07:31:25;100515.34;;;-2.74;83.26
59168;BME280;44948;55.046;73.266;2022-10-31T07:33:10;100513.50;;;-2.63;82.84
59168;BME280;44948;55.046;73.266;2022-10-31T07:35:15;100520.22;;;-2.53;82.79
59168;BME280;44948;55.046;73.266;2022-10-31T07:37:10;100521.91;;;-2.50;82.58
59168;BME280;44948;55.046;73.266;2022-10-31T07:38:52;100514.22;;;-2.50;82.75
59168;BME280;44948;55.046;73.266;2022-10-31T07:40:34;100526.19;;;-2.51;82.01
59168;BME280;44948;55.046;73.266;2022-10-31T07:42:17;100492.16;;;-2.65;82.77
59168;BME280;44948;55.046;73.266;2022-10-31T07:44:01;100533.66;;;-2.36;82.52
59168;BME280;44948;55.046;73.266;2022-10-31T07:46:02;100525.97;;;-2.36;82.61
59168;BME280;44948;55.046;73.266;2022-10-31T07:48:14;100522.47;;;-2.29;82.25
59168;BME280;44948;55.046;73.266;2022-10-31T07:52:33;100459.03;;;-2.87;82.18
59168;BME280;44948;55.046;73.266;2022-10-31T07:54:38;100527.88;;;-2.52;81.83
59168;BME280;44948;55.046;73.266;2022-10-31T07:56:24;100526.19;;;-2.49;82.16
59168;BME280;44948;55.046;73.266;2022-10-31T07:58:12;100535.50;;;-2.44;82.42
59168;BME280;44948;55.046;73.266;2022-10-31T07:59:55;100522.63;;;-2.42;82.29
59168;BME280;44948;55.046;73.266;2022-10-31T08:01:38;100538.81;;;-2.34;82.32
59168;BME280;44948;55.046;73.266;2022-10-31T08:03:38;100539.63;;;-2.31;82.45
59168;BME280;44948;55.046;73.266;2022-10-31T08:05:44;100546.41;;;-2.27;81.96
59168;BME280;44948;55.046;73.266;2022-10-31T08:07:47;100548.97;;;-2.27;82.17
59168;BME280;44948;55.046;73.266;2022-10-31T08:09:35;100547.28;;;-2.29;82.03
59168;BME280;44948;55.046;73.266;2022-10-31T08:11:24;100556.72;;;-2.30;81.71
59168;BME280;44948;55.046;73.266;2022-10-31T08:13:10;100553.28;;;-2.29;82.19
59168;BME280;44948;55.046;73.266;2022-10-31T08:14:57;100535.25;;;-2.26;81.95
59168;BME280;44948;55.046;73.266;2022-10-31T08:16:39;100551.22;;;-2.05;82.14
59168;BME280;44948;55.046;73.266;2022-10-31T08:18:22;100512.03;;;-2.19;81.98
59168;BME280;44948;55.046;73.266;2022-10-31T08:20:06;100519.63;;;-2.12;81.53
59168;BME280;44948;55.046;73.266;2022-10-31T08:21:56;100522.25;;;-2.15;81.25
59168;BME280;44948;55.046;73.266;2022-10-31T08:23:40;100486.56;;;-2.35;81.49
59168;BME280;44948;55.046;73.266;2022-10-31T08:25:23;100538.53;;;-2.14;81.84
59168;BME280;44948;55.046;73.266;2022-10-31T08:27:06;100514.75;;;-2.29;81.95
59168;BME280;44948;55.046;73.266;2022-10-31T08:28:48;100534.31;;;-2.20;81.55
59168;BME280;44948;55.046;73.266;2022-10-31T08:30:34;100534.28;;;-2.17;81.57
59168;BME280;44948;55.046;73.266;2022-10-31T08:32:43;100533.28;;;-2.08;81.95
59168;BME280;44948;55.046;73.266;2022-10-31T08:34:43;100532.22;;;-1.94;81.76
59168;BME280;44948;55.046;73.266;2022-10-31T08:36:44;100540.00;;;-2.01;81.40
59168;BME280;44948;55.046;73.266;2022-10-31T08:38:38;100538.28;;;-1.98;81.55
59168;BME280;44948;55.046;73.266;2022-10-31T08:40:26;100552.66;;;-1.87;81.33
59168;BME280;44948;55.046;73.266;2022-10-31T08:42:08;100543.31;;;-1.92;81.14
59168;BME280;44948;55.046;73.266;2022-10-31T08:43:51;100511.19;;;-2.20;81.22
59168;BME280;44948;55.046;73.266;2022-10-31T08:45:34;100537.50;;;-2.04;81.23
59168;BME280;44948;55.046;73.266;2022-10-31T08:47:18;100542.75;;;-2.12;81.42
59168;BME280;44948;55.046;73.266;2022-10-31T08:49:01;100541.75;;;-2.03;81.64
59168;BME280;44948;55.046;73.266;2022-10-31T08:50:44;100527.16;;;-2.00;81.56
59168;BME280;44948;55.046;73.266;2022-10-31T08:52:27;100539.78;;;-1.86;81.29
59168;BME280;44948;55.046;73.266;2022-10-31T08:54:15;100542.31;;;-1.81;81.18
59168;BME280;44948;55.046;73.266;2022-10-31T08:56:10;100537.09;;;-1.77;81.21
59168;BME280;44948;55.046;73.266;2022-10-31T08:57:57;100547.22;;;-1.69;80.96
59168;BME280;44948;55.046;73.266;2022-10-31T08:59:43;100552.31;;;-1.65;80.90
59168;BME280;44948;55.046;73.266;2022-10-31T09:01:40;100547.94;;;-1.59;81.20
59168;BME280;44948;55.046;73.266;2022-10-31T09:03:24;100556.53;;;-1.61;80.17
59168;BME280;44948;55.046;73.266;2022-10-31T09:05:08;100542.16;;;-1.74;79.91
59168;BME280;44948;55.046;73.266;2022-10-31T09:06:50;100448.88;;;-2.33;80.44
59168;BME280;44948;55.046;73.266;2022-10-31T09:08:33;100538.63;;;-1.67;80.90
59168;BME280;44948;55.046;73.266;2022-10-31T09:10:16;100542.00;;;-1.63;80.12
59168;BME280;44948;55.046;73.266;2022-10-31T09:12:00;100547.97;;;-1.61;80.42
59168;BME280;44948;55.046;73.266;2022-10-31T09:14:18;100530.97;;;-1.71;79.92
59168;BME280;44948;55.046;73.266;2022-10-31T09:16:26;100552.28;;;-1.63;79.91
59168;BME280;44948;55.046;73.266;2022-10-31T09:18:10;100560.00;;;-1.63;80.05
59168;BME280;44948;55.046;73.266;2022-10-31T09:20:00;100565.13;;;-1.62;79.95
59168;BME280;44948;55.046;73.266;2022-10-31T09:21:47;100565.13;;;-1.62;80.00
59168;BME280;44948;55.046;73.266;2022-10-31T09:23:29;100553.88;;;-1.56;79.98
59168;BME280;44948;55.046;73.266;2022-10-31T09:25:15;100554.66;;;-1.49;80.13
59168;BME280;44948;55.046;73.266;2022-10-31T09:27:03;100548.84;;;-1.62;79.60
59168;BME280;44948;55.046;73.266;2022-10-31T09:28:47;100571.00;;;-1.55;79.42
59168;BME280;44948;55.046;73.266;2022-10-31T09:30:34;100556.38;;;-1.51;79.57
59168;BME280;44948;55.046;73.266;2022-10-31T09:32:17;100557.16;;;-1.46;79.41
59168;BME280;44948;55.046;73.266;2022-10-31T09:34:01;100540.22;;;-1.59;79.27
59168;BME280;44948;55.046;73.266;2022-10-31T09:35:52;100557.91;;;-1.41;79.10